Ferry Kyoto2 — JI3701 — position and weather

sailwx.info

Track history (hours):
 
Tides and Currents Weather Stations Pressure Air Temp Water Temp Dewpoint Dewpoint Depression Visibility Wind Speed Wind Dir Waves Ship Positions

Ferry Kyoto2

Last reported at 2014-Oct-31 12:29 UTC. Time now 2014-Oct-31 12:51 UTC.
Position N 34°35' E 134°51'.

Length 167 m; draft 6 m.

Type: Passenger vessel. MMSI: 431301641.

Date/timePositionNaut miles runAvg speedWind from/ knotsBaromVisibWave heightAir tempDewpointWater temp
2014-Oct-31 12:29N 34°35' E 134°51'1819.9
2014-Oct-31 11:33N 34°36' E 135°13'1010.0
2014-Oct-31 10:32N 34°37' E 135°26'0 0.0
2014-Oct-31 09:29N 34°37' E 135°26'0 0.0
2014-Oct-31 08:29N 34°37' E 135°26'0 0.0
2014-Oct-31 07:29N 34°37' E 135°26'0 0.0
2014-Oct-31 06:29N 34°37' E 135°26'0 0.0
2014-Oct-31 05:29N 34°37' E 135°26'0 0.0
2014-Oct-31 04:29N 34°37' E 135°26'0 0.0
2014-Oct-31 03:23N 34°37' E 135°26'0 0.0
2014-Oct-31 02:29N 34°37' E 135°26'0 0.0
2014-Oct-31 01:29N 34°37' E 135°26'0 0.0
2014-Oct-31 00:29N 34°37' E 135°26'0 0.0
2014-Oct-30 23:29N 34°37' E 135°26'1011.3
2014-Oct-30 22:34N 34°35' E 135°14'2019.7
2014-Oct-30 21:33N 34°34' E 134°49'10717.8
2014-Oct-30 15:32N 34°01' E 132°46'2322.5
2014-Oct-30 14:32N 33°46' E 132°25'129 5.0
2014-Oct-29 12:34N 34°34' E 134°49'2020.2
2014-Oct-29 11:34N 34°36' E 135°14'10 8.2
2014-Oct-29 10:21N 34°37' E 135°26'0 0.0
2014-Oct-29 09:33N 34°37' E 135°26'0 0.0
2014-Oct-29 08:33N 34°37' E 135°26'0 0.0
2014-Oct-29 07:33N 34°37' E 135°26'0 0.0
2014-Oct-29 06:33N 34°37' E 135°26'0 0.0
2014-Oct-29 05:27N 34°37' E 135°26'0 0.0
2014-Oct-29 04:27N 34°37' E 135°26'0 0.0
2014-Oct-29 03:33N 34°37' E 135°26'0 0.0
2014-Oct-29 02:33N 34°37' E 135°26'0 0.0
2014-Oct-29 01:33N 34°37' E 135°26'0 0.0
2014-Oct-29 00:33N 34°37' E 135°26'0 0.0
2014-Oct-28 23:33N 34°37' E 135°26'1010.1
2014-Oct-28 22:33N 34°35' E 135°14'1919.2
2014-Oct-28 21:33N 34°34' E 134°51'10918.2
2014-Oct-28 15:33N 33°60' E 132°45'2421.6
2014-Oct-28 14:28N 33°45' E 132°23'21 1.0
2014-Oct-27 18:33N 33°58' E 132°42'11118.6
2014-Oct-27 12:34N 34°34' E 134°49'2221.5
2014-Oct-27 11:34N 34°36' E 135°16'9 7.8
2014-Oct-27 10:28N 34°37' E 135°26'0 0.0
2014-Oct-27 09:16N 34°37' E 135°26'0 0.0
2014-Oct-27 08:22N 34°37' E 135°26'0 0.0
2014-Oct-27 07:22N 34°37' E 135°26'0 0.0
2014-Oct-27 06:22N 34°37' E 135°26'0 0.0
2014-Oct-27 05:28N 34°37' E 135°26'0 0.0
2014-Oct-27 04:28N 34°37' E 135°26'0 0.0
2014-Oct-27 03:28N 34°37' E 135°26'0 0.0
2014-Oct-27 02:28N 34°37' E 135°26'0 0.0
2014-Oct-27 01:16N 34°37' E 135°26'0 0.0
2014-Oct-27 00:28N 34°37' E 135°26'0 0.0
2014-Oct-26 23:33N 34°37' E 135°26'1010.6
2014-Oct-26 22:33N 34°35' E 135°13'1818.2
2014-Oct-26 21:33N 34°34' E 134°51'11118.0
2014-Oct-26 15:22N 33°58' E 132°44'109 4.1
2014-Oct-25 12:30N 34°34' E 134°48'2021.8
2014-Oct-25 11:34N 34°36' E 135°13'1110.5
2014-Oct-25 10:33N 34°37' E 135°26'0 0.0
2014-Oct-25 09:33N 34°37' E 135°26'0 0.0
2014-Oct-25 08:27N 34°37' E 135°26'0 0.0
2014-Oct-25 07:27N 34°37' E 135°26'0 0.0
2014-Oct-25 06:27N 34°37' E 135°26'0 0.0
2014-Oct-25 05:33N 34°37' E 135°26'0 0.0
2014-Oct-25 04:33N 34°37' E 135°26'0 0.0
2014-Oct-25 03:21N 34°37' E 135°26'0 0.0
2014-Oct-25 02:33N 34°37' E 135°26'0 0.0
2014-Oct-25 01:27N 34°37' E 135°26'0 0.0
2014-Oct-25 00:27N 34°37' E 135°26'0 0.0
2014-Oct-24 23:30N 34°37' E 135°26'1111.2
2014-Oct-24 22:33N 34°35' E 135°13'1818.4
2014-Oct-24 21:33N 34°34' E 134°51'10817.9
2014-Oct-24 15:33N 34°01' E 132°47'7 0.3
2014-Oct-23 18:28N 33°57' E 132°41'10918.4
2014-Oct-23 12:33N 34°33' E 134°45'2222.1
2014-Oct-23 11:34N 34°36' E 135°12'1210.9
2014-Oct-23 10:29N 34°37' E 135°26'0 0.0
2014-Oct-23 09:29N 34°37' E 135°26'0 0.0
2014-Oct-23 08:29N 34°37' E 135°26'0 0.0
2014-Oct-23 07:29N 34°37' E 135°26'0 0.0
2014-Oct-23 06:29N 34°37' E 135°26'0 0.0
2014-Oct-23 05:29N 34°37' E 135°26'0 0.0
2014-Oct-23 04:29N 34°37' E 135°26'0 0.0
2014-Oct-23 03:29N 34°37' E 135°26'0 0.0
2014-Oct-23 02:29N 34°37' E 135°26'0 0.0
2014-Oct-23 01:29N 34°37' E 135°26'0 0.0
2014-Oct-23 00:23N 34°37' E 135°26'0 0.0
2014-Oct-22 23:33N 34°37' E 135°26'1212.0
2014-Oct-22 22:33N 34°35' E 135°12'1717.0
2014-Oct-22 21:32N 34°34' E 134°51'10717.7
2014-Oct-22 15:28N 34°01' E 132°47'2620.1
2014-Oct-22 14:11N 33°50' E 132°19'20 1.0
2014-Oct-21 18:28N 33°57' E 132°41'11018.5
2014-Oct-21 12:33N 34°34' E 134°46'  
Track history (hours):
 
Tides and Currents Weather Stations Pressure Air Temp Water Temp Dewpoint Dewpoint Depression Visibility Wind Speed Wind Dir Waves Ship Positions

Ferry Kyoto2

Last reported at 2014-Oct-31 12:29 UTC. Time now 2014-Oct-31 12:51 UTC.
Position N 34°35' E 134°51'.

Length 167 m; draft 6 m.

Type: Passenger vessel. MMSI: 431301641.

Date/timePositionNaut miles runAvg speedWind from/ knotsBaromVisibWave heightAir tempDewpointWater temp
2014-Oct-31 12:29N 34°35' E 134°51'1819.9
2014-Oct-31 11:33N 34°36' E 135°13'1010.0
2014-Oct-31 10:32N 34°37' E 135°26'0 0.0
2014-Oct-31 09:29N 34°37' E 135°26'0 0.0
2014-Oct-31 08:29N 34°37' E 135°26'0 0.0
2014-Oct-31 07:29N 34°37' E 135°26'0 0.0
2014-Oct-31 06:29N 34°37' E 135°26'0 0.0
2014-Oct-31 05:29N 34°37' E 135°26'0 0.0
2014-Oct-31 04:29N 34°37' E 135°26'0 0.0
2014-Oct-31 03:23N 34°37' E 135°26'0 0.0
2014-Oct-31 02:29N 34°37' E 135°26'0 0.0
2014-Oct-31 01:29N 34°37' E 135°26'0 0.0
2014-Oct-31 00:29N 34°37' E 135°26'0 0.0
2014-Oct-30 23:29N 34°37' E 135°26'1011.3
2014-Oct-30 22:34N 34°35' E 135°14'2019.7
2014-Oct-30 21:33N 34°34' E 134°49'10717.8
2014-Oct-30 15:32N 34°01' E 132°46'2322.5
2014-Oct-30 14:32N 33°46' E 132°25'129 5.0
2014-Oct-29 12:34N 34°34' E 134°49'2020.2
2014-Oct-29 11:34N 34°36' E 135°14'10 8.2
2014-Oct-29 10:21N 34°37' E 135°26'0 0.0
2014-Oct-29 09:33N 34°37' E 135°26'0 0.0
2014-Oct-29 08:33N 34°37' E 135°26'0 0.0
2014-Oct-29 07:33N 34°37' E 135°26'0 0.0
2014-Oct-29 06:33N 34°37' E 135°26'0 0.0
2014-Oct-29 05:27N 34°37' E 135°26'0 0.0
2014-Oct-29 04:27N 34°37' E 135°26'0 0.0
2014-Oct-29 03:33N 34°37' E 135°26'0 0.0
2014-Oct-29 02:33N 34°37' E 135°26'0 0.0
2014-Oct-29 01:33N 34°37' E 135°26'0 0.0
2014-Oct-29 00:33N 34°37' E 135°26'0 0.0
2014-Oct-28 23:33N 34°37' E 135°26'1010.1
2014-Oct-28 22:33N 34°35' E 135°14'1919.2
2014-Oct-28 21:33N 34°34' E 134°51'10918.2
2014-Oct-28 15:33N 33°60' E 132°45'2421.6
2014-Oct-28 14:28N 33°45' E 132°23'21 1.0
2014-Oct-27 18:33N 33°58' E 132°42'11118.6
2014-Oct-27 12:34N 34°34' E 134°49'2221.5
2014-Oct-27 11:34N 34°36' E 135°16'9 7.8
2014-Oct-27 10:28N 34°37' E 135°26'0 0.0
2014-Oct-27 09:16N 34°37' E 135°26'0 0.0
2014-Oct-27 08:22N 34°37' E 135°26'0 0.0
2014-Oct-27 07:22N 34°37' E 135°26'0 0.0
2014-Oct-27 06:22N 34°37' E 135°26'0 0.0
2014-Oct-27 05:28N 34°37' E 135°26'0 0.0
2014-Oct-27 04:28N 34°37' E 135°26'0 0.0
2014-Oct-27 03:28N 34°37' E 135°26'0 0.0
2014-Oct-27 02:28N 34°37' E 135°26'0 0.0
2014-Oct-27 01:16N 34°37' E 135°26'0 0.0
2014-Oct-27 00:28N 34°37' E 135°26'0 0.0
2014-Oct-26 23:33N 34°37' E 135°26'1010.6
2014-Oct-26 22:33N 34°35' E 135°13'1818.2
2014-Oct-26 21:33N 34°34' E 134°51'11118.0
2014-Oct-26 15:22N 33°58' E 132°44'109 4.1
2014-Oct-25 12:30N 34°34' E 134°48'2021.8
2014-Oct-25 11:34N 34°36' E 135°13'1110.5
2014-Oct-25 10:33N 34°37' E 135°26'0 0.0
2014-Oct-25 09:33N 34°37' E 135°26'0 0.0
2014-Oct-25 08:27N 34°37' E 135°26'0 0.0
2014-Oct-25 07:27N 34°37' E 135°26'0 0.0
2014-Oct-25 06:27N 34°37' E 135°26'0 0.0
2014-Oct-25 05:33N 34°37' E 135°26'0 0.0
2014-Oct-25 04:33N 34°37' E 135°26'0 0.0
2014-Oct-25 03:21N 34°37' E 135°26'0 0.0
2014-Oct-25 02:33N 34°37' E 135°26'0 0.0
2014-Oct-25 01:27N 34°37' E 135°26'0 0.0
2014-Oct-25 00:27N 34°37' E 135°26'0 0.0
2014-Oct-24 23:30N 34°37' E 135°26'1111.2
2014-Oct-24 22:33N 34°35' E 135°13'1818.4
2014-Oct-24 21:33N 34°34' E 134°51'10817.9
2014-Oct-24 15:33N 34°01' E 132°47'7 0.3
2014-Oct-23 18:28N 33°57' E 132°41'10918.4
2014-Oct-23 12:33N 34°33' E 134°45'2222.1
2014-Oct-23 11:34N 34°36' E 135°12'1210.9
2014-Oct-23 10:29N 34°37' E 135°26'0 0.0
2014-Oct-23 09:29N 34°37' E 135°26'0 0.0
2014-Oct-23 08:29N 34°37' E 135°26'0 0.0
2014-Oct-23 07:29N 34°37' E 135°26'0 0.0
2014-Oct-23 06:29N 34°37' E 135°26'0 0.0
2014-Oct-23 05:29N 34°37' E 135°26'0 0.0
2014-Oct-23 04:29N 34°37' E 135°26'0 0.0
2014-Oct-23 03:29N 34°37' E 135°26'0 0.0
2014-Oct-23 02:29N 34°37' E 135°26'0 0.0
2014-Oct-23 01:29N 34°37' E 135°26'0 0.0
2014-Oct-23 00:23N 34°37' E 135°26'0 0.0
2014-Oct-22 23:33N 34°37' E 135°26'1212.0
2014-Oct-22 22:33N 34°35' E 135°12'1717.0
2014-Oct-22 21:32N 34°34' E 134°51'10717.7
2014-Oct-22 15:28N 34°01' E 132°47'2620.1
2014-Oct-22 14:11N 33°50' E 132°19'20 1.0
2014-Oct-21 18:28N 33°57' E 132°41'11018.5
2014-Oct-21 12:33N 34°34' E 134°46'  

Dump ship's entire track history